createdAt,value
2019-02-19T00:00:14.449Z,100747.16
2019-02-19T00:00:48.167Z,100752.35
2019-02-19T00:01:20.572Z,100731.53
2019-02-19T00:01:51.820Z,100731.53
2019-02-19T00:02:23.168Z,100742.48
2019-02-19T00:02:54.544Z,100746.28
2019-02-19T00:03:25.894Z,100746.28
2019-02-19T00:03:57.256Z,100744.03
2019-02-19T00:04:28.586Z,100744.03
2019-02-19T00:04:59.786Z,100736.25
2019-02-19T00:05:31.115Z,100737.70
2019-02-19T00:06:02.405Z,100737.70
2019-02-19T00:06:33.755Z,100737.70
2019-02-19T00:07:05.085Z,100740.29
2019-02-19T00:07:36.474Z,100742.65
2019-02-19T00:08:07.685Z,100742.65
2019-02-19T00:08:39.002Z,100740.14
2019-02-19T00:09:10.364Z,100741.27
2019-02-19T00:09:41.669Z,100738.66
2019-02-19T00:10:12.901Z,100717.86
2019-02-19T00:10:44.442Z,100723.60
2019-02-19T00:11:15.709Z,100737.31
2019-02-19T00:11:47.070Z,100721.52
2019-02-19T00:12:18.404Z,100721.52
2019-02-19T00:12:49.808Z,100735.77
2019-02-19T00:13:21.063Z,100733.67
2019-02-19T00:13:52.419Z,100743.62
2019-02-19T00:14:23.748Z,100743.62
2019-02-19T00:14:55.121Z,100734.39
2019-02-19T00:15:26.330Z,100736.09
2019-02-19T00:15:57.650Z,100731.70
2019-02-19T00:16:28.926Z,100731.70
2019-02-19T00:17:00.301Z,100733.25
2019-02-19T00:17:31.758Z,100733.25
2019-02-19T00:18:03.022Z,100743.48
2019-02-19T00:18:34.388Z,100743.48
2019-02-19T00:19:05.696Z,100732.61
2019-02-19T00:19:36.990Z,100736.91
2019-02-19T00:20:08.261Z,100736.91
2019-02-19T00:20:39.533Z,100733.02
2019-02-19T00:21:10.845Z,100732.61
2019-02-19T00:21:42.213Z,100732.21
2019-02-19T00:22:14.605Z,100732.21
2019-02-19T00:22:45.933Z,100736.25
2019-02-19T00:23:17.231Z,100736.25
2019-02-19T00:23:48.617Z,100723.77
2019-02-19T00:24:20.045Z,100722.56
2019-02-19T00:24:51.367Z,100698.58
2019-02-19T00:25:22.635Z,100705.36
2019-02-19T00:25:53.893Z,100721.41
2019-02-19T00:26:25.188Z,100722.86
2019-02-19T00:26:56.535Z,100707.06
2019-02-19T00:27:27.779Z,100729.20
2019-02-19T00:27:59.087Z,100724.99
2019-02-19T00:28:30.449Z,100724.99
2019-02-19T00:29:01.784Z,100716.22
2019-02-19T00:29:33.128Z,100723.05
2019-02-19T00:30:05.159Z,100715.17
2019-02-19T00:30:37.382Z,100715.17
2019-02-19T00:31:08.634Z,100715.27
2019-02-19T00:31:39.894Z,100711.03
2019-02-19T00:32:11.132Z,100711.11
2019-02-19T00:32:42.412Z,100706.47
2019-02-19T00:33:13.792Z,100706.56
2019-02-19T00:33:45.010Z,100690.61
2019-02-19T00:34:16.289Z,100690.61
2019-02-19T00:34:47.515Z,100707.52
2019-02-19T00:35:18.744Z,100707.52
2019-02-19T00:35:50.112Z,100701.42
2019-02-19T00:36:21.337Z,100701.42
2019-02-19T00:36:52.620Z,100697.08
2019-02-19T00:37:23.905Z,100697.08
2019-02-19T00:37:55.205Z,100700.48
2019-02-19T00:38:26.419Z,100681.44
2019-02-19T00:38:57.762Z,100683.63
2019-02-19T00:39:29.070Z,100697.53
2019-02-19T00:40:00.576Z,100697.53
2019-02-19T00:40:31.815Z,100697.08
2019-02-19T00:41:03.235Z,100703.56
2019-02-19T00:41:34.472Z,100703.56
2019-02-19T00:42:05.751Z,100684.98
2019-02-19T00:42:37.167Z,100701.92
2019-02-19T00:43:08.485Z,100701.61
2019-02-19T00:43:39.761Z,100701.61
2019-02-19T00:44:11.434Z,100698.61
2019-02-19T00:44:42.818Z,100687.00
2019-02-19T00:45:16.660Z,100687.00
2019-02-19T00:45:47.591Z,100680.66
2019-02-19T00:46:18.986Z,100674.25
2019-02-19T00:46:50.218Z,100674.25
2019-02-19T00:47:21.548Z,100678.91
2019-02-19T00:47:52.804Z,100692.98
2019-02-19T00:48:24.102Z,100690.84
2019-02-19T00:48:55.436Z,100692.14
2019-02-19T00:49:26.700Z,100673.36
2019-02-19T00:49:58.039Z,100689.89
2019-02-19T00:50:29.310Z,100684.70
2019-02-19T00:51:00.692Z,100683.41
2019-02-19T00:51:31.979Z,100683.41
2019-02-19T00:52:03.238Z,100696.30
2019-02-19T00:52:34.524Z,100689.27
2019-02-19T00:53:05.771Z,100683.27
2019-02-19T00:53:37.075Z,100683.27
2019-02-19T00:54:08.325Z,100683.27
2019-02-19T00:54:39.588Z,100689.17
2019-02-19T00:55:10.868Z,100671.69
2019-02-19T00:55:42.138Z,100671.69
2019-02-19T00:56:13.644Z,100687.23
2019-02-19T00:56:45.005Z,100669.41
2019-02-19T00:57:16.345Z,100690.90
2019-02-19T00:57:47.615Z,100686.45
2019-02-19T00:58:19.001Z,100686.45
2019-02-19T00:58:50.307Z,100681.52
2019-02-19T00:59:21.562Z,100681.52
2019-02-19T00:59:52.794Z,100678.93
2019-02-19T01:00:24.054Z,100663.55
2019-02-19T01:00:55.517Z,100663.55
2019-02-19T01:01:26.840Z,100677.31
2019-02-19T01:01:58.127Z,100677.31
2019-02-19T01:02:29.416Z,100657.31
2019-02-19T01:03:00.706Z,100673.91
2019-02-19T01:03:32.003Z,100673.91
2019-02-19T01:04:03.238Z,100668.77
2019-02-19T01:04:34.542Z,100676.01
2019-02-19T01:05:06.028Z,100676.01
2019-02-19T01:05:37.330Z,100665.89
2019-02-19T01:06:08.614Z,100665.89
2019-02-19T01:06:39.951Z,100672.23
2019-02-19T01:07:11.325Z,100668.65
2019-02-19T01:07:42.662Z,100668.16
2019-02-19T01:08:13.937Z,100649.87
2019-02-19T01:08:45.203Z,100649.87
2019-02-19T01:09:16.667Z,100649.87
2019-02-19T01:09:48.138Z,100664.52
2019-02-19T01:10:19.561Z,100645.57
2019-02-19T01:10:50.933Z,100664.20
2019-02-19T01:11:22.267Z,100664.20
2019-02-19T01:11:53.629Z,100669.41
2019-02-19T01:12:25.030Z,100669.41
2019-02-19T01:12:57.435Z,100666.23
2019-02-19T01:13:29.225Z,100665.43
2019-02-19T01:14:00.508Z,100660.99
2019-02-19T01:14:31.915Z,100660.99
2019-02-19T01:15:07.321Z,100650.84
2019-02-19T01:15:38.691Z,100661.96
2019-02-19T01:16:10.707Z,100657.92
2019-02-19T01:16:42.123Z,100659.12
2019-02-19T01:17:13.380Z,100645.62
2019-02-19T01:17:44.838Z,100645.62
2019-02-19T01:18:16.160Z,100645.93
2019-02-19T01:18:47.538Z,100655.73
2019-02-19T01:19:18.934Z,100664.33
2019-02-19T01:19:50.391Z,100664.33
2019-02-19T01:20:21.855Z,100660.03
2019-02-19T01:20:53.334Z,100657.34
2019-02-19T01:21:24.784Z,100657.34
2019-02-19T01:21:56.188Z,100645.77
2019-02-19T01:22:27.627Z,100645.77
2019-02-19T01:22:58.979Z,100653.05
2019-02-19T01:23:30.349Z,100648.67
2019-02-19T01:24:01.659Z,100629.64
2019-02-19T01:24:32.970Z,100646.57
2019-02-19T01:25:06.753Z,100631.12
2019-02-19T01:25:38.149Z,100631.12
2019-02-19T01:26:09.445Z,100648.02
2019-02-19T01:26:40.774Z,100647.21
2019-02-19T01:27:12.080Z,100647.21
2019-02-19T01:27:43.665Z,100641.53
2019-02-19T01:28:15.239Z,100627.63
2019-02-19T01:28:46.605Z,100637.64
2019-02-19T01:29:17.858Z,100625.98
2019-02-19T01:29:49.266Z,100626.24
2019-02-19T01:30:20.519Z,100623.00
2019-02-19T01:30:51.819Z,100635.95
2019-02-19T01:31:23.165Z,100635.95
2019-02-19T01:31:54.428Z,100623.11
2019-02-19T01:32:25.709Z,100623.11
2019-02-19T01:32:57.122Z,100634.67
2019-02-19T01:33:28.429Z,100613.45
2019-02-19T01:33:59.738Z,100613.45
2019-02-19T01:34:30.964Z,100616.44
2019-02-19T01:35:02.830Z,100616.44
2019-02-19T01:35:34.198Z,100612.09
2019-02-19T01:36:05.412Z,100612.09
2019-02-19T01:36:36.706Z,100627.20
2019-02-19T01:37:08.009Z,100623.75
2019-02-19T01:37:39.335Z,100604.72
2019-02-19T01:38:10.615Z,100603.83
2019-02-19T01:38:41.907Z,100603.83
2019-02-19T01:39:13.153Z,100621.96
2019-02-19T01:39:44.475Z,100614.73
2019-02-19T01:40:15.787Z,100614.33
2019-02-19T01:40:47.179Z,100614.33
2019-02-19T01:41:18.513Z,100620.41
2019-02-19T01:41:49.791Z,100620.41
2019-02-19T01:42:21.040Z,100609.49
2019-02-19T01:42:52.485Z,100620.32
2019-02-19T01:43:23.807Z,100617.73
2019-02-19T01:43:55.199Z,100618.31
2019-02-19T01:44:26.439Z,100614.02
2019-02-19T01:44:57.769Z,100614.02
2019-02-19T01:45:34.073Z,100615.78
2019-02-19T01:46:02.252Z,100615.78
2019-02-19T01:46:33.500Z,100614.27
2019-02-19T01:47:04.840Z,100617.41
2019-02-19T01:47:36.231Z,100615.21
2019-02-19T01:48:07.612Z,100615.21
2019-02-19T01:48:39.064Z,100610.42
2019-02-19T01:49:10.422Z,100611.67
2019-02-19T01:49:41.775Z,100611.67
2019-02-19T01:50:13.074Z,100614.17
2019-02-19T01:50:44.455Z,100612.38
2019-02-19T01:51:15.802Z,100596.69
2019-02-19T01:51:47.171Z,100606.24
2019-02-19T01:52:18.457Z,100603.87
2019-02-19T01:52:49.804Z,100612.94
2019-02-19T01:53:21.107Z,100592.65
2019-02-19T01:53:52.370Z,100606.00
2019-02-19T01:54:23.641Z,100606.00
2019-02-19T01:54:54.979Z,100606.89
2019-02-19T01:55:26.361Z,100599.28
2019-02-19T01:55:57.726Z,100604.13
2019-02-19T01:56:29.068Z,100604.13
2019-02-19T01:57:00.375Z,100605.41
2019-02-19T01:57:31.767Z,100605.41
2019-02-19T01:58:03.062Z,100608.50
2019-02-19T01:58:34.494Z,100608.50
2019-02-19T01:59:05.966Z,100604.30
2019-02-19T01:59:37.256Z,100599.81
2019-02-19T02:00:09.561Z,100587.20
2019-02-19T02:00:40.847Z,100600.38
2019-02-19T02:01:12.285Z,100600.38
2019-02-19T02:01:43.687Z,100578.81
2019-02-19T02:02:16.021Z,100599.48
2019-02-19T02:02:47.280Z,100599.48
2019-02-19T02:03:18.622Z,100595.59
2019-02-19T02:03:49.867Z,100596.49
2019-02-19T02:04:21.130Z,100601.59
2019-02-19T02:04:52.458Z,100596.16
2019-02-19T02:05:23.811Z,100596.16
2019-02-19T02:05:55.164Z,100580.97
2019-02-19T02:06:26.478Z,100579.18
2019-02-19T02:06:57.745Z,100579.18
2019-02-19T02:07:30.043Z,100588.23
2019-02-19T02:08:01.394Z,100587.59
2019-02-19T02:08:32.892Z,100587.59
2019-02-19T02:09:04.772Z,100591.00
2019-02-19T02:09:36.171Z,100592.64
2019-02-19T02:10:07.500Z,100590.50
2019-02-19T02:10:38.893Z,100589.70
2019-02-19T02:11:10.256Z,100583.56
2019-02-19T02:11:41.588Z,100583.56
2019-02-19T02:12:13.080Z,100586.55
2019-02-19T02:12:44.405Z,100586.55
2019-02-19T02:13:15.824Z,100591.09
2019-02-19T02:13:47.051Z,100589.61
2019-02-19T02:14:18.387Z,100584.77
2019-02-19T02:14:49.704Z,100575.13
2019-02-19T02:15:21.078Z,100588.91
2019-02-19T02:15:52.338Z,100588.91
2019-02-19T02:16:23.648Z,100590.70
2019-02-19T02:18:30.363Z,100592.55
2019-02-19T02:19:01.775Z,100581.02
2019-02-19T02:19:33.037Z,100580.88
2019-02-19T02:20:06.053Z,100587.45
2019-02-19T02:20:38.439Z,100587.45
2019-02-19T02:21:09.822Z,100589.20
2019-02-19T02:21:41.164Z,100589.20
2019-02-19T02:22:12.430Z,100583.88
2019-02-19T02:22:43.692Z,100583.33
2019-02-19T02:23:15.095Z,100579.59
2019-02-19T02:23:46.349Z,100579.59
2019-02-19T02:24:17.681Z,100581.20
2019-02-19T02:24:48.888Z,100585.09
2019-02-19T02:25:20.213Z,100586.73
2019-02-19T02:25:51.451Z,100578.37
2019-02-19T02:26:22.758Z,100561.08
2019-02-19T02:26:54.127Z,100561.08
2019-02-19T02:27:25.496Z,100577.91
2019-02-19T02:27:56.742Z,100560.00
2019-02-19T02:28:28.006Z,100573.29
2019-02-19T02:28:59.257Z,100556.76
2019-02-19T02:29:30.671Z,100573.59
2019-02-19T02:30:03.328Z,100573.59
2019-02-19T02:30:34.770Z,100568.36
2019-02-19T02:31:06.054Z,100550.53
2019-02-19T02:31:37.377Z,100550.53
2019-02-19T02:32:08.704Z,100564.78
2019-02-19T02:32:39.959Z,100566.02
2019-02-19T02:33:11.176Z,100546.89
2019-02-19T02:33:42.425Z,100546.89
2019-02-19T02:34:14.755Z,100563.83
2019-02-19T02:34:45.997Z,100564.32
2019-02-19T02:35:17.244Z,100556.04
2019-02-19T02:35:48.513Z,100556.04
2019-02-19T02:36:19.886Z,100547.53
2019-02-19T02:36:51.193Z,100554.98
2019-02-19T02:37:22.585Z,100552.63
2019-02-19T02:37:53.882Z,100552.63
2019-02-19T02:38:25.136Z,100557.23
2019-02-19T02:38:56.466Z,100557.08
2019-02-19T02:39:27.839Z,100543.75
2019-02-19T02:39:59.155Z,100543.75
2019-02-19T02:40:30.514Z,100552.80
2019-02-19T02:41:01.820Z,100553.77
2019-02-19T02:41:33.177Z,100547.29
2019-02-19T02:42:04.466Z,100547.29
2019-02-19T02:42:35.829Z,100549.97
2019-02-19T02:43:07.113Z,100549.97
2019-02-19T02:43:38.464Z,100550.69
2019-02-19T02:44:09.841Z,100550.69
2019-02-19T02:44:41.322Z,100554.27
2019-02-19T02:45:12.703Z,100552.22
2019-02-19T02:45:53.005Z,100552.22
2019-02-19T02:46:17.366Z,100550.92
2019-02-19T02:46:48.626Z,100540.16
2019-02-19T02:47:19.919Z,100544.53
2019-02-19T02:47:51.291Z,100542.69
2019-02-19T02:48:22.698Z,100543.98
2019-02-19T02:48:53.993Z,100543.98
2019-02-19T02:49:25.342Z,100547.78
2019-02-19T02:49:56.693Z,100538.22
2019-02-19T02:50:27.980Z,100542.91
2019-02-19T02:50:59.207Z,100542.91
2019-02-19T02:51:30.567Z,100542.91
2019-02-19T02:52:01.919Z,100542.91
2019-02-19T02:52:33.236Z,100531.09
2019-02-19T02:53:04.545Z,100536.61
2019-02-19T02:53:35.925Z,100536.61
2019-02-19T02:54:07.228Z,100538.41
2019-02-19T02:55:42.729Z,100537.42
2019-02-19T02:56:14.502Z,100537.42
2019-02-19T02:56:45.876Z,100537.11
2019-02-19T02:57:17.215Z,100537.11
2019-02-19T02:57:48.609Z,100532.38
2019-02-19T02:58:19.994Z,100532.38
2019-02-19T02:58:51.448Z,100537.91
2019-02-19T02:59:22.772Z,100531.92
2019-02-19T02:59:54.077Z,100531.92
2019-02-19T03:00:25.494Z,100534.52
2019-02-19T03:00:56.883Z,100516.20
2019-02-19T03:01:28.171Z,100516.20
2019-02-19T03:01:59.387Z,100527.45
2019-02-19T03:02:30.750Z,100530.45
2019-02-19T03:03:02.002Z,100534.67
2019-02-19T03:03:33.270Z,100537.52
2019-02-19T03:04:04.518Z,100537.52
2019-02-19T03:04:35.858Z,100531.44
2019-02-19T03:05:07.203Z,100533.45
2019-02-19T03:05:40.613Z,100530.30
2019-02-19T03:06:13.823Z,100532.00
2019-02-19T03:07:03.640Z,100524.72
2019-02-19T03:07:39.777Z,100524.72
2019-02-19T03:08:11.366Z,100528.67
2019-02-19T03:08:42.572Z,100530.05
2019-02-19T03:09:13.903Z,100527.38
2019-02-19T03:09:45.276Z,100534.44
2019-02-19T03:10:16.596Z,100534.44
2019-02-19T03:10:47.940Z,100529.66
2019-02-19T03:11:19.239Z,100528.61
2019-02-19T03:11:50.626Z,100526.73
2019-02-19T03:12:22.019Z,100528.02
2019-02-19T03:12:53.281Z,100528.02
2019-02-19T03:13:24.536Z,100532.41
2019-02-19T03:13:55.833Z,100527.56
2019-02-19T03:14:27.128Z,100524.98
2019-02-19T03:14:58.430Z,100527.56
2019-02-19T03:15:30.844Z,100526.17
2019-02-19T03:16:02.810Z,100526.17
2019-02-19T03:16:34.210Z,100531.45
2019-02-19T03:17:05.547Z,100527.97
2019-02-19T03:17:36.877Z,100531.11
2019-02-19T03:18:08.174Z,100531.11
2019-02-19T03:18:39.531Z,100523.83
2019-02-19T03:19:10.901Z,100529.11
2019-02-19T03:19:42.269Z,100530.86
2019-02-19T03:20:13.630Z,100526.91
2019-02-19T03:20:44.930Z,100526.91
2019-02-19T03:21:16.171Z,100529.02
2019-02-19T03:21:47.472Z,100530.70
2019-02-19T03:22:18.849Z,100528.61
2019-02-19T03:22:50.273Z,100526.56
2019-02-19T03:23:21.633Z,100514.77
2019-02-19T03:23:52.951Z,100514.77
2019-02-19T03:24:24.334Z,100522.69
2019-02-19T03:24:55.684Z,100520.44
2019-02-19T03:25:27.025Z,100521.23
2019-02-19T03:25:58.473Z,100509.50
2019-02-19T03:26:29.855Z,100518.25
2019-02-19T03:27:01.201Z,100518.25
2019-02-19T03:27:32.527Z,100517.35
2019-02-19T03:28:03.938Z,100524.78
2019-02-19T03:28:35.170Z,100492.42
2019-02-19T03:29:06.467Z,100518.80
2019-02-19T03:29:37.846Z,100520.73
2019-02-19T03:30:09.459Z,100512.66
2019-02-19T03:30:40.752Z,100519.04
2019-02-19T03:31:12.059Z,100518.30
2019-02-19T03:31:43.377Z,100524.31
2019-02-19T03:32:14.746Z,100524.31
2019-02-19T03:32:45.976Z,100524.31
2019-02-19T03:33:17.285Z,100529.55
2019-02-19T03:33:48.500Z,100527.61
2019-02-19T03:34:19.857Z,100527.61
2019-02-19T03:34:51.165Z,100533.20
2019-02-19T03:35:22.546Z,100521.87
2019-02-19T03:35:53.844Z,100524.87
2019-02-19T03:36:25.205Z,100524.87
2019-02-19T03:36:56.501Z,100508.30
2019-02-19T03:37:27.885Z,100528.45
2019-02-19T03:37:59.217Z,100526.41
2019-02-19T03:38:31.525Z,100520.02
2019-02-19T03:39:04.103Z,100520.02
2019-02-19T03:39:35.383Z,100525.27
2019-02-19T03:40:07.649Z,100517.98
2019-02-19T03:40:39.278Z,100519.37
2019-02-19T03:41:10.655Z,100508.60
2019-02-19T03:41:41.903Z,100518.87
2019-02-19T03:42:13.197Z,100518.87
2019-02-19T03:42:44.592Z,100517.98
2019-02-19T03:43:15.914Z,100510.52
2019-02-19T03:43:47.153Z,100503.18
2019-02-19T03:44:18.455Z,100516.38
2019-02-19T03:44:49.728Z,100513.84
2019-02-19T03:45:20.974Z,100506.47
2019-02-19T03:45:52.375Z,100494.11
2019-02-19T03:46:23.776Z,100492.58
2019-02-19T03:46:55.026Z,100492.58
2019-02-19T03:47:26.393Z,100509.55
2019-02-19T03:47:57.725Z,100509.55
2019-02-19T03:48:29.124Z,100506.16
2019-02-19T03:49:00.468Z,100503.56
2019-02-19T03:49:31.726Z,100503.56
2019-02-19T03:50:04.520Z,100495.94
2019-02-19T03:50:35.905Z,100475.71
2019-02-19T03:51:07.212Z,100475.71
2019-02-19T03:51:38.604Z,100494.47
2019-02-19T03:52:10.072Z,100494.47
2019-02-19T03:52:41.496Z,100489.38
2019-02-19T03:53:12.821Z,100489.38
2019-02-19T03:53:44.127Z,100486.44
2019-02-19T03:54:15.431Z,100481.91
2019-02-19T03:54:46.739Z,100482.15
2019-02-19T03:55:18.144Z,100491.63
2019-02-19T03:55:49.495Z,100488.08
2019-02-19T03:56:20.830Z,100480.22
2019-02-19T03:56:52.124Z,100489.14
2019-02-19T03:57:23.460Z,100489.14
2019-02-19T03:57:54.777Z,100483.78
2019-02-19T03:58:26.193Z,100486.77
2019-02-19T03:58:57.504Z,100486.77
2019-02-19T03:59:28.843Z,100486.86
2019-02-19T04:00:00.264Z,100485.25
2019-02-19T04:00:31.566Z,100485.25
2019-02-19T04:01:02.826Z,100490.09
2019-02-19T04:01:34.247Z,100483.21
2019-02-19T04:02:05.519Z,100480.22
2019-02-19T04:02:36.894Z,100481.02
2019-02-19T04:03:08.229Z,100481.02
2019-02-19T04:03:39.590Z,100481.77
2019-02-19T04:04:11.058Z,100480.07
2019-02-19T04:04:42.357Z,100480.07
2019-02-19T04:05:13.636Z,100480.87
2019-02-19T04:05:44.926Z,100475.29
2019-02-19T04:06:16.248Z,100475.29
2019-02-19T04:06:47.602Z,100451.75
2019-02-19T04:07:18.954Z,100473.81
2019-02-19T04:07:50.256Z,100473.62
2019-02-19T04:08:21.631Z,100473.62
2019-02-19T04:08:53.116Z,100473.67
2019-02-19T04:09:24.477Z,100474.16
2019-02-19T04:09:55.929Z,100474.16
2019-02-19T04:10:27.226Z,100475.20
2019-02-19T04:10:58.495Z,100470.51
2019-02-19T04:11:29.921Z,100472.30
2019-02-19T04:12:01.225Z,100472.30
2019-02-19T04:12:32.608Z,100466.91
2019-02-19T04:13:04.914Z,100466.91
2019-02-19T04:13:36.193Z,100463.91
2019-02-19T04:14:07.402Z,100461.73
2019-02-19T04:14:38.727Z,100466.91
2019-02-19T04:15:10.049Z,100428.89
2019-02-19T04:15:41.585Z,100453.49
2019-02-19T04:16:21.162Z,100459.36
2019-02-19T04:16:46.251Z,100459.36
2019-02-19T04:17:17.604Z,100433.33
2019-02-19T04:17:49.133Z,100457.00
2019-02-19T04:18:20.545Z,100435.34
2019-02-19T04:18:51.908Z,100455.70
2019-02-19T04:19:23.346Z,100451.02
2019-02-19T04:19:55.856Z,100454.50
2019-02-19T04:20:27.277Z,100454.50
2019-02-19T04:20:59.568Z,100452.71
2019-02-19T04:21:30.976Z,100448.28
2019-02-19T04:22:02.215Z,100448.28
2019-02-19T04:22:33.651Z,100445.73
2019-02-19T04:23:04.893Z,100446.63
2019-02-19T04:23:36.357Z,100446.63
2019-02-19T04:24:07.730Z,100444.63
2019-02-19T04:24:39.110Z,100440.64
2019-02-19T04:25:10.331Z,100445.83
2019-02-19T04:25:41.665Z,100444.84
2019-02-19T04:26:14.109Z,100444.84
2019-02-19T04:26:45.571Z,100450.58
2019-02-19T04:27:16.843Z,100450.58
2019-02-19T04:27:48.283Z,100447.09
2019-02-19T04:28:19.538Z,100443.06
2019-02-19T04:28:50.920Z,100443.06
2019-02-19T04:29:22.208Z,100443.78
2019-02-19T04:29:53.607Z,100448.97
2019-02-19T04:30:24.899Z,100433.94
2019-02-19T04:30:56.293Z,100433.94
2019-02-19T04:31:27.539Z,100453.44
2019-02-19T04:31:59.968Z,100447.93
2019-02-19T04:32:31.253Z,100450.30
2019-02-19T04:33:02.647Z,100446.66
2019-02-19T04:33:33.862Z,100441.42
2019-02-19T04:34:05.259Z,100441.42
2019-02-19T04:34:36.502Z,100442.55
2019-02-19T04:35:07.829Z,100440.36
2019-02-19T04:35:39.064Z,100440.21
2019-02-19T04:36:10.579Z,100451.38
2019-02-19T04:36:41.890Z,100428.75
2019-02-19T04:37:13.222Z,100448.50
2019-02-19T04:37:44.463Z,100448.91
2019-02-19T04:38:15.905Z,100448.91
2019-02-19T04:38:47.266Z,100442.28
2019-02-19T04:39:18.634Z,100443.63
2019-02-19T04:39:49.855Z,100450.52
2019-02-19T04:40:21.228Z,100445.73
2019-02-19T04:40:52.493Z,100444.44
2019-02-19T04:41:23.923Z,100444.38
2019-02-19T04:41:55.575Z,100445.27
2019-02-19T04:42:26.938Z,100440.89
2019-02-19T04:42:58.429Z,100424.88
2019-02-19T04:43:29.865Z,100424.88
2019-02-19T04:44:01.280Z,100440.09
2019-02-19T04:44:32.689Z,100419.80
2019-02-19T04:45:04.217Z,100419.80
2019-02-19T04:45:35.582Z,100435.86
2019-02-19T04:46:06.982Z,100434.91
2019-02-19T04:46:38.311Z,100429.73
2019-02-19T04:47:09.692Z,100429.73
2019-02-19T04:47:41.126Z,100433.13
2019-02-19T04:48:12.523Z,100431.83
2019-02-19T04:48:43.855Z,100428.34
2019-02-19T04:49:15.164Z,100428.34
2019-02-19T04:49:46.483Z,100430.04
2019-02-19T04:50:19.682Z,100430.04
2019-02-19T04:50:51.024Z,100428.75
2019-02-19T04:51:22.442Z,100428.75
2019-02-19T04:51:53.794Z,100432.63
2019-02-19T04:52:25.120Z,100423.91
2019-02-19T04:52:56.326Z,100426.96
2019-02-19T04:53:27.683Z,100426.96
2019-02-19T04:53:58.919Z,100408.70
2019-02-19T04:54:30.240Z,100408.70
2019-02-19T04:55:01.609Z,100427.39
2019-02-19T04:55:33.034Z,100427.39
2019-02-19T04:56:04.294Z,100424.37
2019-02-19T04:56:35.660Z,100420.97
2019-02-19T04:57:07.016Z,100420.97
2019-02-19T04:57:38.365Z,100419.36
2019-02-19T04:58:09.712Z,100419.36
2019-02-19T04:58:41.394Z,100404.16
2019-02-19T04:59:12.893Z,100404.16
2019-02-19T04:59:44.461Z,100413.69
2019-02-19T05:00:15.861Z,100413.69
2019-02-19T05:00:47.191Z,100419.36
2019-02-19T05:01:18.537Z,100398.48
2019-02-19T05:01:49.841Z,100398.48
2019-02-19T05:02:21.233Z,100411.02
2019-02-19T05:02:52.496Z,100411.02
2019-02-19T05:03:23.802Z,100410.12
2019-02-19T05:03:55.022Z,100411.41
2019-02-19T05:04:26.443Z,100411.41
2019-02-19T05:04:57.786Z,100416.14
2019-02-19T05:05:29.206Z,100404.88
2019-02-19T05:06:00.533Z,100409.80
2019-02-19T05:06:31.894Z,100413.69
2019-02-19T05:07:03.214Z,100401.62
2019-02-19T05:07:34.636Z,100393.08
2019-02-19T05:08:06.000Z,100393.08
2019-02-19T05:08:37.351Z,100410.75
2019-02-19T05:09:08.687Z,100408.25
2019-02-19T05:09:40.075Z,100408.25
2019-02-19T05:10:12.437Z,100409.63
2019-02-19T05:10:43.774Z,100409.63
2019-02-19T05:11:15.056Z,100411.82
2019-02-19T05:11:46.300Z,100401.86
2019-02-19T05:12:17.630Z,100401.86
2019-02-19T05:12:48.889Z,100405.66
2019-02-19T05:13:20.274Z,100406.06
2019-02-19T05:13:51.553Z,100397.17
2019-02-19T05:14:22.926Z,100405.80
2019-02-19T05:14:54.237Z,100400.70
2019-02-19T05:15:25.699Z,100400.70
2019-02-19T05:15:57.073Z,100379.02
2019-02-19T05:16:28.362Z,100391.98
2019-02-19T05:16:59.668Z,100399.41
2019-02-19T05:17:31.016Z,100380.09
2019-02-19T05:18:02.255Z,100402.98
2019-02-19T05:18:33.639Z,100396.30
2019-02-19T05:19:04.895Z,100396.30
2019-02-19T05:19:36.231Z,100382.91
2019-02-19T05:20:08.317Z,100403.66
2019-02-19T05:20:39.670Z,100405.36
2019-02-19T05:21:10.922Z,100405.36
2019-02-19T05:21:42.271Z,100404.07
2019-02-19T05:22:13.745Z,100407.16
2019-02-19T05:22:45.076Z,100401.97
2019-02-19T05:23:16.320Z,100401.56
2019-02-19T05:23:47.635Z,100405.54
2019-02-19T05:24:19.055Z,100401.66
2019-02-19T05:24:50.422Z,100410.78
2019-02-19T05:25:21.689Z,100406.00
2019-02-19T05:25:53.075Z,100400.84
2019-02-19T05:26:24.392Z,100400.84
2019-02-19T05:26:55.822Z,100416.54
2019-02-19T05:27:27.254Z,100400.94
2019-02-19T05:27:58.646Z,100400.94
2019-02-19T05:28:30.065Z,100415.56
2019-02-19T05:29:01.430Z,100415.56
2019-02-19T05:29:32.777Z,100417.26
2019-02-19T05:30:08.800Z,100409.89
2019-02-19T05:30:40.193Z,100409.89
2019-02-19T05:31:11.662Z,100411.67
2019-02-19T05:31:43.217Z,100415.91
2019-02-19T05:32:14.478Z,100413.31
2019-02-19T05:32:45.841Z,100415.06
2019-02-19T05:33:17.088Z,100397.45
2019-02-19T05:33:48.383Z,100397.45
2019-02-19T05:34:19.634Z,100414.20
2019-02-19T05:34:51.975Z,100414.20
2019-02-19T05:35:23.275Z,100400.41
2019-02-19T05:35:54.635Z,100400.41
2019-02-19T05:36:26.042Z,100412.66
2019-02-19T05:36:57.491Z,100412.66
2019-02-19T05:37:28.952Z,100391.86
2019-02-19T05:38:00.509Z,100411.36
2019-02-19T05:38:31.912Z,100411.36
2019-02-19T05:39:04.334Z,100411.36
2019-02-19T05:39:35.728Z,100392.90
2019-02-19T05:40:08.220Z,100392.90
2019-02-19T05:40:39.602Z,100408.59
2019-02-19T05:41:11.254Z,100408.59
2019-02-19T05:41:42.648Z,100408.59
2019-02-19T05:42:13.976Z,100413.28
2019-02-19T05:42:45.378Z,100408.91
2019-02-19T05:43:16.724Z,100408.59
2019-02-19T05:43:48.113Z,100407.29
2019-02-19T05:44:19.383Z,100402.91
2019-02-19T05:44:50.742Z,100394.82
2019-02-19T05:45:22.078Z,100400.23
2019-02-19T05:45:53.492Z,100400.23
2019-02-19T05:46:24.864Z,100407.61
2019-02-19T05:46:56.252Z,100412.70
2019-02-19T05:47:27.451Z,100406.63
2019-02-19T05:47:58.772Z,100405.83
2019-02-19T05:48:30.024Z,100389.81
2019-02-19T05:49:01.387Z,100406.17
2019-02-19T05:49:32.683Z,100401.94
2019-02-19T05:50:07.100Z,100401.94
2019-02-19T05:50:38.352Z,100412.30
2019-02-19T05:51:09.692Z,100397.55
2019-02-19T05:51:40.971Z,100385.92
2019-02-19T05:52:12.297Z,100385.92
2019-02-19T05:52:43.792Z,100400.64
2019-02-19T05:53:15.245Z,100396.75
2019-02-19T05:53:46.854Z,100404.52
2019-02-19T05:54:18.292Z,100403.63
2019-02-19T05:54:49.710Z,100396.27
2019-02-19T05:55:21.148Z,100396.27
2019-02-19T05:55:52.532Z,100401.45
2019-02-19T05:56:24.038Z,100380.60
2019-02-19T05:56:55.342Z,100380.60
2019-02-19T05:57:26.592Z,100393.13
2019-02-19T05:57:58.023Z,100396.12
2019-02-19T05:58:29.343Z,100396.12
2019-02-19T05:59:00.666Z,100399.52
2019-02-19T05:59:32.600Z,100402.11
2019-02-19T06:00:09.554Z,100402.11
2019-02-19T06:00:40.867Z,100376.08
2019-02-19T06:01:12.229Z,100393.88
2019-02-19T06:01:43.865Z,100393.88